This is the latest recevied weather packets stored in our database for station/object 9W2TBJ-4. If no packets are shown the sender has not sent any weather packets the latest 1 day(s).
| Time | Temp. | Humidity | Pressure | Rain* | Wind** | Luminosity | Snow |
|---|---|---|---|---|---|---|---|
| 1777888750 | 32.22° C | 59% | 1009.2 hPa | - | - | - | - |
| 1777887550 | 32.22° C | 59% | 1009.3 hPa | - | - | - | - |
| 1777886350 | 32.78° C | 58% | 1008.6 hPa | - | - | - | - |
| 1777885152 | 32.78° C | 58% | 1008.8 hPa | - | - | - | - |
| 1777883950 | 32.22° C | 59% | 1009.1 hPa | - | - | - | - |
| 1777882750 | 32.22° C | 59% | 1009.2 hPa | - | - | - | - |
| 1777881550 | 32.78° C | 58% | 1009.3 hPa | - | - | - | - |
| 1777880350 | 32.78° C | 58% | 1009.5 hPa | - | - | - | - |
| 1777879150 | 32.78° C | 58% | 1009.8 hPa | - | - | - | - |
| 1777877950 | 32.22° C | 58% | 1010.1 hPa | - | - | - | - |
| 1777876750 | 32.78° C | 59% | 1010.9 hPa | - | - | - | - |
| 1777875549 | 32.78° C | 58% | 1010.7 hPa | - | - | - | - |
| 1777874349 | 33.33° C | 57% | 1011.4 hPa | - | - | - | - |
| 1777873152 | 32.78° C | 58% | 1011.4 hPa | - | - | - | - |
| 1777871949 | 32.78° C | 58% | 1011.6 hPa | - | - | - | - |
| 1777870749 | 32.78° C | 59% | 1011.9 hPa | - | - | - | - |
| 1777869549 | 32.22° C | 58% | 1012 hPa | - | - | - | - |
| 1777868349 | 32.22° C | 57% | 1012.3 hPa | - | - | - | - |
| 1777867149 | 31.67° C | 62% | 1012.5 hPa | - | - | - | - |
| 1777865952 | 31.67° C | 63% | 1012.6 hPa | - | - | - | - |
| 1777864748 | 31.67° C | 63% | 1012.7 hPa | - | - | - | - |
| 1777863548 | 31.11° C | 65% | 1013 hPa | - | - | - | - |
| 1777862348 | 32.22° C | 60% | 1012.8 hPa | - | - | - | - |
| 1777861148 | 31.67° C | 61% | 1013 hPa | - | - | - | - |
| 1777859948 | 31.67° C | 61% | 1012.9 hPa | - | - | - | - |
* Rain since midnight (hover to see other rain measurements)
** Current wind speed in m/s (hover to see current wind gust speed)